createdAt,value
2017-11-22T00:00:43.279Z,69.27
2017-11-22T00:01:53.240Z,69.27
2017-11-22T00:03:02.968Z,69.65
2017-11-22T00:04:12.955Z,69.65
2017-11-22T00:05:22.937Z,69.46
2017-11-22T00:06:32.901Z,69.65
2017-11-22T00:07:42.654Z,69.36
2017-11-22T00:08:52.356Z,69.17
2017-11-22T00:10:02.324Z,69.55
2017-11-22T00:11:11.763Z,69.55
2017-11-22T00:12:21.469Z,69.08
2017-11-22T00:13:31.437Z,68.98
2017-11-22T00:14:41.159Z,69.27
2017-11-22T00:15:51.141Z,68.7
2017-11-22T00:17:00.839Z,68.7
2017-11-22T00:18:10.544Z,69.27
2017-11-22T00:19:20.535Z,68.89
2017-11-22T00:20:30.535Z,68.6
2017-11-22T00:21:40.501Z,68.89
2017-11-22T00:22:50.207Z,68.7
2017-11-22T00:23:59.914Z,68.89
2017-11-22T00:25:09.932Z,68.6
2017-11-22T00:26:19.629Z,68.89
2017-11-22T00:27:29.330Z,68.7
2017-11-22T00:28:39.035Z,68.51
2017-11-22T00:29:47.952Z,68.13
2017-11-22T00:30:57.682Z,68.23
2017-11-22T00:32:07.672Z,68.23
2017-11-22T00:33:17.642Z,68.23
2017-11-22T00:34:27.385Z,68.41
2017-11-22T00:35:37.091Z,68.04
2017-11-22T00:36:47.067Z,67.75
2017-11-22T00:37:57.031Z,68.04
2017-11-22T00:39:06.732Z,67.65
2017-11-22T00:40:16.698Z,67.27
2017-11-22T00:41:26.399Z,67.85
2017-11-22T00:42:36.379Z,66.99
2017-11-22T00:43:46.345Z,67.56
2017-11-22T00:44:56.318Z,66.61
2017-11-22T00:46:06.032Z,66.8
2017-11-22T00:47:15.746Z,66.89
2017-11-22T00:48:25.716Z,66.52
2017-11-22T00:49:35.169Z,66.42
2017-11-22T00:50:45.163Z,66.42
2017-11-22T00:51:54.858Z,66.14
2017-11-22T00:53:04.576Z,65.56
2017-11-22T00:54:14.021Z,65.28
2017-11-22T00:55:24.001Z,65.37
2017-11-22T00:56:33.958Z,65.19
2017-11-22T00:57:43.938Z,65.09
2017-11-22T00:58:53.383Z,65
2017-11-22T01:00:03.081Z,64.81
2017-11-22T01:01:12.796Z,64.9
2017-11-22T01:02:22.511Z,64.9
2017-11-22T01:03:32.224Z,64.52
2017-11-22T01:04:41.408Z,64.24
2017-11-22T01:05:51.112Z,64.14
2017-11-22T01:07:00.799Z,64.43
2017-11-22T01:08:10.493Z,64.27
2017-11-22T01:09:20.457Z,63.98
2017-11-22T01:10:30.429Z,63.48
2017-11-22T01:11:40.389Z,63.7
2017-11-22T01:12:50.360Z,63.42
2017-11-22T01:14:00.329Z,63.42
2017-11-22T01:15:10.378Z,63.51
2017-11-22T01:16:20.355Z,63.7
2017-11-22T01:17:30.060Z,63.89
2017-11-22T01:18:39.512Z,63.42
2017-11-22T01:19:49.238Z,63.32
2017-11-22T01:20:58.943Z,63.04
2017-11-22T01:22:08.913Z,63.13
2017-11-22T01:23:18.626Z,63.23
2017-11-22T01:24:28.328Z,63.04
2017-11-22T01:25:38.293Z,63.13
2017-11-22T01:26:47.734Z,63.32
2017-11-22T01:27:57.698Z,63.13
2017-11-22T01:29:07.699Z,62.94
2017-11-22T01:30:17.118Z,62.75
2017-11-22T01:31:27.085Z,62.66
2017-11-22T01:32:37.055Z,62.94
2017-11-22T01:33:47.013Z,62.85
2017-11-22T01:34:56.463Z,62.66
2017-11-22T01:36:06.180Z,62.56
2017-11-22T01:37:15.632Z,62.18
2017-11-22T01:38:25.350Z,62.27
2017-11-22T01:39:35.069Z,62.37
2017-11-22T01:40:44.253Z,62.27
2017-11-22T01:41:53.973Z,62.37
2017-11-22T01:43:03.687Z,62.66
2017-11-22T01:44:13.408Z,62.46
2017-11-22T01:45:23.176Z,62.18
2017-11-22T01:46:33.145Z,62.02
2017-11-22T01:47:42.846Z,62.31
2017-11-22T01:48:52.831Z,62.21
2017-11-22T01:50:02.806Z,62.21
2017-11-22T01:51:12.255Z,62.21
2017-11-22T01:52:22.217Z,62.21
2017-11-22T01:53:32.228Z,61.83
2017-11-22T01:54:41.677Z,62.02
2017-11-22T01:55:51.660Z,61.74
2017-11-22T01:57:01.627Z,61.93
2017-11-22T01:58:11.362Z,61.65
2017-11-22T01:59:21.067Z,61.07
2017-11-22T02:00:30.768Z,60.79
2017-11-22T02:01:40.249Z,60.88
2017-11-22T02:02:49.698Z,61.17
2017-11-22T02:03:59.880Z,61.07
2017-11-22T02:05:09.315Z,60.98
2017-11-22T02:06:19.025Z,61.17
2017-11-22T02:07:29.000Z,60.79
2017-11-22T02:08:38.905Z,60.41
2017-11-22T02:09:48.617Z,60.41
2017-11-22T02:10:58.579Z,60.82
2017-11-22T02:12:08.005Z,60.69
2017-11-22T02:13:17.976Z,60.16
2017-11-22T02:14:27.951Z,60.06
2017-11-22T02:15:37.651Z,60.16
2017-11-22T02:16:47.616Z,60.16
2017-11-22T02:17:57.582Z,60.35
2017-11-22T02:19:07.282Z,60.44
2017-11-22T02:20:16.994Z,60.25
2017-11-22T02:21:26.700Z,60.25
2017-11-22T02:22:36.410Z,60.06
2017-11-22T02:23:46.383Z,60.25
2017-11-22T02:24:56.347Z,60.25
2017-11-22T02:26:06.330Z,60.44
2017-11-22T02:27:16.300Z,59.96
2017-11-22T02:28:26.013Z,60.09
2017-11-22T02:29:35.973Z,59.71
2017-11-22T02:30:45.677Z,59.9
2017-11-22T02:31:55.385Z,59.42
2017-11-22T02:33:05.357Z,59.9
2017-11-22T02:34:14.806Z,59.99
2017-11-22T02:35:24.502Z,59.99
2017-11-22T02:36:34.502Z,59.9
2017-11-22T02:37:44.478Z,59.9
2017-11-22T02:39:02.123Z,59.99
2017-11-22T02:40:25.192Z,59.99
2017-11-22T02:41:35.164Z,59.93
2017-11-22T02:42:44.622Z,59.93
2017-11-22T02:43:54.343Z,59.93
2017-11-22T02:45:03.802Z,60.02
2017-11-22T02:46:13.763Z,59.74
2017-11-22T02:47:23.743Z,59.07
2017-11-22T02:48:33.727Z,58.88
2017-11-22T02:49:43.451Z,58.88
2017-11-22T02:50:53.177Z,58.98
2017-11-22T02:52:03.158Z,58.69
2017-11-22T02:53:12.595Z,58.5
2017-11-22T02:54:22.573Z,58.5
2017-11-22T02:55:32.290Z,58.69
2017-11-22T02:56:41.223Z,58.31
2017-11-22T02:57:51.185Z,58.4
2017-11-22T02:59:01.153Z,57.93
2017-11-22T03:00:12.417Z,57.93
2017-11-22T03:01:22.609Z,57.84
2017-11-22T03:02:32.315Z,57.17
2017-11-22T03:03:42.026Z,56.88
2017-11-22T03:04:52.005Z,56.88
2017-11-22T03:06:01.475Z,56.51
2017-11-22T03:07:11.445Z,56.12
2017-11-22T03:08:21.425Z,56.12
2017-11-22T03:09:31.121Z,55.74
2017-11-22T03:10:41.073Z,56.12
2017-11-22T03:11:51.044Z,55.55
2017-11-22T03:13:01.027Z,55.17
2017-11-22T03:14:11.024Z,55.36
2017-11-22T03:15:20.741Z,55.65
2017-11-22T03:16:30.199Z,56.12
2017-11-22T03:17:39.673Z,58.03
2017-11-22T03:18:49.744Z,58.79
2017-11-22T03:19:59.765Z,59.83
2017-11-22T03:21:09.523Z,60.69
2017-11-22T03:22:19.489Z,61.83
2017-11-22T03:23:28.931Z,63.54
2017-11-22T03:24:38.639Z,65.35
2017-11-22T03:25:47.830Z,66.87
2017-11-22T03:26:57.810Z,67.63
2017-11-22T03:28:07.515Z,68.21
2017-11-22T03:29:17.495Z,68.68
2017-11-22T03:30:27.477Z,69.92
2017-11-22T03:31:37.452Z,70.68
2017-11-22T03:32:47.410Z,70.97
2017-11-22T03:33:57.118Z,71.44
2017-11-22T03:35:07.149Z,72.49
2017-11-22T03:36:17.289Z,74.96
2017-11-22T03:37:27.378Z,77.81
2017-11-22T03:38:37.351Z,78.29
2017-11-22T03:39:47.059Z,79.62
2017-11-22T03:40:56.520Z,80.47
2017-11-22T03:42:06.488Z,81.52
2017-11-22T03:43:16.212Z,81.43
2017-11-22T03:44:25.910Z,81.14
2017-11-22T03:45:35.364Z,82.09
2017-11-22T03:46:45.105Z,81.81
2017-11-22T03:47:55.341Z,82.86
2017-11-22T03:49:05.327Z,83.14
2017-11-22T03:50:15.039Z,83.14
2017-11-22T03:51:24.753Z,84.19
2017-11-22T03:52:34.971Z,85.14
2017-11-22T03:53:44.407Z,86.66
2017-11-22T03:54:54.378Z,86.38
2017-11-22T03:56:04.352Z,86.9
2017-11-22T03:57:14.326Z,86.76
2017-11-22T03:58:24.307Z,88.42
2017-11-22T03:59:34.014Z,88.8
2017-11-22T04:00:43.717Z,90.47
2017-11-22T04:01:53.694Z,91.22
2017-11-22T04:03:03.667Z,92.13
2017-11-22T04:04:13.644Z,92.46
2017-11-22T04:05:23.096Z,92.94
2017-11-22T04:06:33.085Z,93.37
2017-11-22T04:07:42.788Z,94.18
2017-11-22T04:08:52.237Z,94.18
2017-11-22T04:10:02.203Z,94.89
2017-11-22T04:11:12.181Z,95.22
2017-11-22T04:12:22.146Z,96.03
2017-11-22T04:13:31.861Z,95.84
2017-11-22T04:14:41.828Z,96.5
2017-11-22T04:15:51.806Z,97.93
2017-11-22T04:17:01.521Z,99.12
2017-11-22T04:18:11.501Z,98.88
2017-11-22T04:19:21.480Z,99.22
2017-11-22T04:20:31.460Z,99.55
2017-11-22T04:21:40.638Z,99.99
2017-11-22T04:22:50.601Z,99.99
2017-11-22T04:24:00.304Z,99.99
2017-11-22T04:25:10.005Z,99.99
2017-11-22T04:26:19.714Z,99.99
2017-11-22T04:27:29.429Z,99.99
2017-11-22T04:28:39.133Z,99.99
2017-11-22T04:29:48.840Z,99.99
2017-11-22T04:30:58.305Z,99.99
2017-11-22T04:32:08.022Z,99.99
2017-11-22T04:33:17.748Z,99.99
2017-11-22T04:34:27.737Z,99.99
2017-11-22T04:35:37.459Z,99.99
2017-11-22T04:36:46.916Z,99.99
2017-11-22T04:37:56.641Z,99.99
2017-11-22T04:39:06.347Z,99.99
2017-11-22T04:40:16.095Z,99.99
2017-11-22T04:41:25.549Z,99.99
2017-11-22T04:42:34.995Z,99.99
2017-11-22T04:43:44.458Z,99.99
2017-11-22T04:44:54.424Z,99.99
2017-11-22T04:46:04.128Z,99.99
2017-11-22T04:47:13.847Z,99.99
2017-11-22T04:48:23.295Z,99.99
2017-11-22T04:49:33.263Z,99.99
2017-11-22T04:50:43.242Z,99.99
2017-11-22T04:51:52.961Z,99.99
2017-11-22T04:53:02.935Z,99.99
2017-11-22T04:54:12.901Z,99.99
2017-11-22T04:55:22.883Z,99.99
2017-11-22T04:56:32.598Z,99.99
2017-11-22T04:57:42.557Z,99.99
2017-11-22T04:58:52.267Z,99.99
2017-11-22T05:00:02.232Z,99.99
2017-11-22T05:01:11.942Z,99.99
2017-11-22T05:02:21.643Z,99.99
2017-11-22T05:03:31.349Z,99.99
2017-11-22T05:04:41.320Z,99.99
2017-11-22T05:05:51.296Z,99.99
2017-11-22T05:07:01.285Z,99.99
2017-11-22T05:08:11.000Z,99.99
2017-11-22T05:09:20.965Z,99.99
2017-11-22T05:10:30.930Z,99.99
2017-11-22T05:11:40.901Z,99.99
2017-11-22T05:12:50.624Z,99.99
2017-11-22T05:14:00.072Z,99.99
2017-11-22T05:15:09.777Z,99.99
2017-11-22T05:16:19.505Z,99.99
2017-11-22T05:17:28.948Z,99.99
2017-11-22T05:18:38.913Z,99.99
2017-11-22T05:19:48.093Z,99.99
2017-11-22T05:20:58.078Z,99.99
2017-11-22T05:22:08.051Z,99.99
2017-11-22T05:23:18.029Z,99.99
2017-11-22T05:24:28.015Z,99.99
2017-11-22T05:25:37.736Z,99.99
2017-11-22T05:26:46.915Z,99.99
2017-11-22T05:27:56.885Z,99.99
2017-11-22T05:29:06.075Z,99.99
2017-11-22T05:30:15.789Z,99.99
2017-11-22T05:31:25.761Z,99.99
2017-11-22T05:32:35.740Z,99.99
2017-11-22T05:33:45.746Z,99.99
2017-11-22T05:34:55.757Z,99.99
2017-11-22T05:36:05.467Z,99.99
2017-11-22T05:37:15.178Z,99.99
2017-11-22T05:38:24.896Z,99.99
2017-11-22T05:39:34.885Z,99.99
2017-11-22T05:40:44.327Z,99.99
2017-11-22T05:41:54.033Z,99.99
2017-11-22T05:43:03.745Z,99.99
2017-11-22T05:44:13.470Z,99.99
2017-11-22T05:45:23.186Z,99.99
2017-11-22T05:46:32.894Z,99.99
2017-11-22T05:47:42.860Z,99.99
2017-11-22T05:48:53.082Z,99.99
2017-11-22T05:50:02.526Z,99.99
2017-11-22T05:51:12.494Z,99.99
2017-11-22T05:52:22.463Z,99.99
2017-11-22T05:53:32.485Z,99.99
2017-11-22T05:54:42.198Z,99.99
2017-11-22T05:55:51.662Z,99.99
2017-11-22T05:57:01.627Z,99.99
2017-11-22T05:58:11.323Z,99.99
2017-11-22T05:59:20.771Z,99.99
2017-11-22T06:00:30.771Z,99.99
2017-11-22T06:01:40.737Z,99.99
2017-11-22T06:02:50.214Z,99.99
2017-11-22T06:03:59.657Z,99.99
2017-11-22T06:05:09.628Z,99.99
2017-11-22T06:06:19.326Z,99.99
2017-11-22T06:07:29.291Z,99.99
2017-11-22T06:08:38.991Z,99.99
2017-11-22T06:09:48.976Z,99.99
2017-11-22T06:10:58.976Z,99.99
2017-11-22T06:12:08.964Z,99.99
2017-11-22T06:13:18.402Z,99.99
2017-11-22T06:14:28.124Z,99.99
2017-11-22T06:15:38.137Z,99.99
2017-11-22T06:16:48.103Z,99.99
2017-11-22T06:17:58.078Z,99.99
2017-11-22T06:19:08.063Z,99.99
2017-11-22T06:20:17.767Z,99.99
2017-11-22T06:21:27.482Z,99.99
2017-11-22T06:22:37.200Z,99.99
2017-11-22T06:23:46.910Z,99.99
2017-11-22T06:24:56.354Z,99.99
2017-11-22T06:26:06.063Z,99.99
2017-11-22T06:27:16.037Z,99.99
2017-11-22T06:28:25.487Z,99.99
2017-11-22T06:29:35.461Z,99.99
2017-11-22T06:30:45.453Z,99.99
2017-11-22T06:31:55.471Z,99.99
2017-11-22T06:33:05.438Z,99.99
2017-11-22T06:34:15.134Z,99.99
2017-11-22T06:35:24.891Z,99.99
2017-11-22T06:36:34.704Z,99.99
2017-11-22T06:37:44.155Z,99.99
2017-11-22T06:38:54.188Z,99.99
2017-11-22T06:40:03.903Z,99.99
2017-11-22T06:41:13.898Z,99.99
2017-11-22T06:42:23.628Z,99.99
2017-11-22T06:43:33.089Z,99.99
2017-11-22T06:44:42.790Z,99.99
2017-11-22T06:45:52.523Z,99.99
2017-11-22T06:47:02.530Z,99.99
2017-11-22T06:48:12.315Z,99.99
2017-11-22T06:49:22.298Z,99.99
2017-11-22T06:50:32.274Z,99.99
2017-11-22T06:51:42.004Z,99.99
2017-11-22T06:52:51.970Z,99.99
2017-11-22T06:54:01.705Z,99.99
2017-11-22T06:55:11.677Z,99.99
2017-11-22T06:56:21.382Z,99.99
2017-11-22T06:57:31.352Z,99.99
2017-11-22T06:58:40.981Z,99.99
2017-11-22T06:59:51.372Z,99.99
2017-11-22T07:01:00.852Z,99.99
2017-11-22T07:02:10.032Z,99.99
2017-11-22T07:03:19.214Z,99.99
2017-11-22T07:04:28.661Z,99.99
2017-11-22T07:05:38.632Z,99.99
2017-11-22T07:06:48.336Z,99.99
2017-11-22T07:07:58.310Z,99.99
2017-11-22T07:09:07.758Z,99.99
2017-11-22T07:10:17.465Z,99.99
2017-11-22T07:11:27.445Z,99.99
2017-11-22T07:12:37.154Z,99.99
2017-11-22T07:13:46.865Z,99.99
2017-11-22T07:14:56.583Z,99.99
2017-11-22T07:16:06.622Z,99.99
2017-11-22T07:17:16.337Z,99.99
2017-11-22T07:18:26.329Z,99.99
2017-11-22T07:19:36.050Z,99.99
2017-11-22T07:20:45.775Z,99.99
2017-11-22T07:21:55.762Z,99.99
2017-11-22T07:23:05.468Z,99.99
2017-11-22T07:24:14.925Z,99.99
2017-11-22T07:25:24.924Z,99.99
2017-11-22T07:26:34.893Z,99.99
2017-11-22T07:27:44.606Z,99.99
2017-11-22T07:28:54.829Z,99.99
2017-11-22T07:30:04.542Z,99.99
2017-11-22T07:31:14.523Z,99.99
2017-11-22T07:32:24.227Z,99.99
2017-11-22T07:33:34.207Z,99.73
2017-11-22T07:34:44.174Z,99.73
2017-11-22T07:35:53.626Z,98.97
2017-11-22T07:37:03.346Z,99.16
2017-11-22T07:38:13.090Z,98.88
2017-11-22T07:39:23.081Z,99.02
2017-11-22T07:40:32.533Z,99.3
2017-11-22T07:41:42.504Z,99.35
2017-11-22T07:42:52.480Z,99.07
2017-11-22T07:44:02.447Z,99.4
2017-11-22T07:45:11.901Z,99.59
2017-11-22T07:46:21.879Z,99.73
2017-11-22T07:47:31.588Z,99.4
2017-11-22T07:48:41.301Z,99.5
2017-11-22T07:49:51.329Z,99.99
2017-11-22T07:51:00.767Z,99.99
2017-11-22T07:52:10.766Z,99.99
2017-11-22T07:53:20.754Z,99.99
2017-11-22T07:54:30.754Z,99.99
2017-11-22T07:55:40.754Z,99.99
2017-11-22T07:56:50.765Z,99.99
2017-11-22T07:58:00.464Z,99.99
2017-11-22T07:59:10.166Z,99.99
2017-11-22T08:00:19.870Z,99.99
2017-11-22T08:01:29.314Z,99.99
2017-11-22T08:02:38.751Z,99.99
2017-11-22T08:03:48.487Z,99.99
2017-11-22T08:04:58.210Z,99.99
2017-11-22T08:06:07.933Z,99.99
2017-11-22T08:07:17.914Z,99.99
2017-11-22T08:08:27.879Z,99.99
2017-11-22T08:09:37.339Z,99.99
2017-11-22T08:10:47.065Z,99.99
2017-11-22T08:11:57.071Z,99.99
2017-11-22T08:13:07.068Z,99.99
2017-11-22T08:14:16.277Z,99.99
2017-11-22T08:15:26.296Z,99.99
2017-11-22T08:16:36.266Z,99.99
2017-11-22T08:17:46.005Z,99.99
2017-11-22T08:18:55.968Z,99.99
2017-11-22T08:20:05.429Z,99.99
2017-11-22T08:21:15.137Z,99.99
2017-11-22T08:22:25.121Z,99.99
2017-11-22T08:23:34.848Z,99.99
2017-11-22T08:24:44.563Z,99.99
2017-11-22T08:25:54.576Z,99.99
2017-11-22T08:27:04.306Z,99.99
2017-11-22T08:28:14.278Z,99.99
2017-11-22T08:29:24.257Z,99.99
2017-11-22T08:30:34.236Z,99.99
2017-11-22T08:31:43.981Z,99.99
2017-11-22T08:32:53.687Z,99.99
2017-11-22T08:34:03.435Z,99.99
2017-11-22T08:35:13.151Z,99.99
2017-11-22T08:36:23.121Z,99.99
2017-11-22T08:37:33.118Z,99.99
2017-11-22T08:38:42.824Z,99.99
2017-11-22T08:39:52.303Z,99.99
2017-11-22T08:41:01.790Z,99.99
2017-11-22T08:42:11.337Z,99.99
2017-11-22T08:43:21.098Z,99.99
2017-11-22T08:44:30.552Z,99.99
2017-11-22T08:45:40.278Z,99.99
2017-11-22T08:46:49.994Z,99.99
2017-11-22T08:47:59.968Z,99.99
2017-11-22T08:49:09.677Z,99.99
2017-11-22T08:50:19.128Z,99.99
2017-11-22T08:51:28.590Z,99.99
2017-11-22T08:52:38.566Z,99.99
2017-11-22T08:53:48.547Z,99.99
2017-11-22T08:54:57.995Z,99.99
2017-11-22T08:56:07.719Z,99.99
2017-11-22T08:57:17.440Z,99.99
2017-11-22T08:58:27.240Z,99.99
2017-11-22T08:59:36.731Z,99.99
2017-11-22T09:00:46.713Z,99.99
2017-11-22T09:01:56.456Z,99.99
2017-11-22T09:03:05.934Z,99.99
2017-11-22T09:04:15.399Z,99.99
2017-11-22T09:05:25.117Z,99.99
2017-11-22T09:06:35.108Z,99.99
2017-11-22T09:07:44.854Z,99.99
2017-11-22T09:08:54.830Z,99.99
2017-11-22T09:10:04.548Z,99.99
2017-11-22T09:11:14.279Z,99.99
2017-11-22T09:12:24.280Z,99.99
2017-11-22T09:13:34.020Z,99.99
2017-11-22T09:14:43.744Z,99.99
2017-11-22T09:15:53.475Z,99.99
2017-11-22T09:17:03.223Z,99.99
2017-11-22T09:18:13.218Z,99.99
2017-11-22T09:19:22.946Z,99.99
2017-11-22T09:20:32.402Z,99.99
2017-11-22T09:21:42.430Z,99.99
2017-11-22T09:22:52.429Z,99.99
2017-11-22T09:24:01.904Z,99.99
2017-11-22T09:25:11.899Z,99.99
2017-11-22T09:26:21.890Z,99.99
2017-11-22T09:27:31.671Z,99.99
2017-11-22T09:28:41.688Z,99.99
2017-11-22T09:29:51.699Z,99.99
2017-11-22T09:31:01.684Z,99.99
2017-11-22T09:32:11.681Z,99.99
2017-11-22T09:33:21.676Z,99.99
2017-11-22T09:34:31.676Z,99.99
2017-11-22T09:35:41.135Z,99.99
2017-11-22T09:36:51.131Z,99.99
2017-11-22T09:38:01.113Z,99.99
2017-11-22T09:39:10.850Z,99.99
2017-11-22T09:40:20.570Z,99.99
2017-11-22T09:41:30.329Z,99.99
2017-11-22T09:42:40.361Z,99.99
2017-11-22T09:43:50.101Z,99.99
2017-11-22T09:45:00.101Z,99.99
2017-11-22T09:46:09.856Z,99.99
2017-11-22T09:47:19.597Z,99.99
2017-11-22T09:48:29.591Z,99.99
2017-11-22T09:49:39.592Z,99.99
2017-11-22T09:50:49.318Z,99.99
2017-11-22T09:51:59.346Z,99.99
2017-11-22T09:53:09.087Z,99.99
2017-11-22T09:54:18.812Z,99.99
2017-11-22T09:55:28.381Z,99.99
2017-11-22T09:56:38.161Z,99.99
2017-11-22T09:57:47.936Z,99.99
2017-11-22T09:58:57.928Z,99.99
2017-11-22T10:00:07.681Z,99.99
2017-11-22T10:01:16.898Z,99.99
2017-11-22T10:02:26.897Z,99.99
2017-11-22T10:03:36.899Z,99.99
2017-11-22T10:04:46.638Z,99.99
2017-11-22T10:05:56.094Z,99.99
2017-11-22T10:07:05.828Z,99.99
2017-11-22T10:08:15.827Z,99.99
2017-11-22T10:09:25.318Z,99.99
2017-11-22T10:10:35.073Z,99.99
2017-11-22T10:11:45.065Z,99.99
2017-11-22T10:12:55.125Z,99.99
2017-11-22T10:14:05.124Z,99.99
2017-11-22T10:15:15.119Z,99.99
2017-11-22T10:16:25.166Z,99.99
2017-11-22T10:17:34.870Z,99.99
2017-11-22T10:18:44.064Z,99.99
2017-11-22T10:19:53.773Z,99.99
2017-11-22T10:21:03.493Z,99.99
2017-11-22T10:22:12.955Z,99.99
2017-11-22T10:23:22.674Z,99.99
2017-11-22T10:24:32.683Z,99.99
2017-11-22T10:25:42.460Z,99.99
2017-11-22T10:26:52.438Z,99.99
2017-11-22T10:28:02.463Z,99.99
2017-11-22T10:29:11.940Z,99.99
2017-11-22T10:30:21.397Z,99.99
2017-11-22T10:31:31.115Z,99.99
2017-11-22T10:32:40.847Z,99.99
2017-11-22T10:33:50.568Z,99.99
2017-11-22T10:35:00.338Z,99.99
2017-11-22T10:36:10.048Z,99.99
2017-11-22T10:37:19.789Z,99.99
2017-11-22T10:38:29.768Z,99.99
2017-11-22T10:39:39.777Z,99.99
2017-11-22T10:40:49.546Z,99.99
2017-11-22T10:41:59.549Z,99.99
2017-11-22T10:43:09.528Z,99.99
2017-11-22T10:44:19.501Z,99.99
2017-11-22T10:45:29.478Z,99.99
2017-11-22T10:46:39.192Z,99.99
2017-11-22T10:47:49.179Z,99.99
2017-11-22T10:48:59.166Z,99.99
2017-11-22T10:50:09.150Z,99.99
2017-11-22T10:51:18.900Z,99.99
2017-11-22T10:52:28.875Z,99.99
2017-11-22T10:53:38.346Z,99.99
2017-11-22T10:54:48.396Z,99.99
2017-11-22T10:55:58.431Z,99.99
2017-11-22T10:57:08.436Z,99.99
2017-11-22T10:58:17.860Z,99.99
2017-11-22T10:59:27.593Z,99.99
2017-11-22T11:00:37.644Z,99.99
2017-11-22T11:01:47.354Z,99.99
2017-11-22T11:02:57.078Z,99.99
2017-11-22T11:04:07.065Z,99.99
2017-11-22T11:05:17.049Z,99.99
2017-11-22T11:06:26.777Z,99.99
2017-11-22T11:07:36.502Z,99.99
2017-11-22T11:08:46.507Z,99.99
2017-11-22T11:09:55.700Z,99.99
2017-11-22T11:11:05.427Z,99.99
2017-11-22T11:12:15.138Z,99.99
2017-11-22T11:13:24.864Z,99.99
2017-11-22T11:14:34.351Z,99.99
2017-11-22T11:15:44.329Z,99.99
2017-11-22T11:16:54.352Z,99.99
2017-11-22T11:18:04.359Z,99.99
2017-11-22T11:19:14.391Z,99.99
2017-11-22T11:20:24.139Z,99.99
2017-11-22T11:21:34.155Z,99.99
2017-11-22T11:23:15.978Z,99.99
2017-11-22T11:24:45.171Z,99.99
2017-11-22T11:25:54.632Z,99.99
2017-11-22T11:27:04.625Z,99.99
2017-11-22T11:28:14.350Z,99.99
2017-11-22T11:29:23.805Z,99.99
2017-11-22T11:30:33.513Z,99.99
2017-11-22T11:31:42.976Z,99.99
2017-11-22T11:32:52.426Z,99.99
2017-11-22T11:34:02.197Z,99.99
2017-11-22T11:35:11.386Z,99.99
2017-11-22T11:36:21.369Z,99.99
2017-11-22T11:37:31.436Z,99.99
2017-11-22T11:38:41.425Z,99.99
2017-11-22T11:39:51.177Z,99.99
2017-11-22T11:41:01.237Z,99.99
2017-11-22T11:42:10.988Z,99.99
2017-11-22T11:43:20.991Z,99.99
2017-11-22T11:44:30.727Z,99.99
2017-11-22T11:45:40.220Z,99.99
2017-11-22T11:46:49.962Z,99.99
2017-11-22T11:47:59.423Z,99.99
2017-11-22T11:49:09.520Z,99.99
2017-11-22T11:50:19.489Z,99.99
2017-11-22T11:51:29.469Z,99.99
2017-11-22T11:52:39.463Z,99.99
2017-11-22T11:53:49.198Z,99.99
2017-11-22T11:54:59.188Z,99.99
2017-11-22T11:56:09.186Z,99.99
2017-11-22T11:57:18.899Z,99.99
2017-11-22T11:58:28.881Z,99.99
2017-11-22T11:59:38.627Z,99.99
2017-11-22T12:00:47.871Z,99.99
2017-11-22T12:01:57.629Z,99.99
2017-11-22T12:03:07.363Z,99.99
2017-11-22T12:04:16.824Z,99.99
2017-11-22T12:05:26.313Z,99.99
2017-11-22T12:06:36.293Z,99.99
2017-11-22T12:07:46.355Z,99.99
2017-11-22T12:08:56.138Z,99.99
2017-11-22T12:10:06.145Z,99.99
2017-11-22T12:11:15.914Z,99.99
2017-11-22T12:12:25.902Z,99.99
2017-11-22T12:13:35.377Z,99.99
2017-11-22T12:14:45.424Z,99.99
2017-11-22T12:15:55.428Z,99.99
2017-11-22T12:17:05.442Z,99.99
2017-11-22T12:18:14.900Z,99.99
2017-11-22T12:19:24.619Z,99.99
2017-11-22T12:20:34.614Z,99.99
2017-11-22T12:21:44.079Z,99.99
2017-11-22T12:22:54.082Z,99.99
2017-11-22T12:24:03.808Z,99.99
2017-11-22T12:25:13.792Z,99.99
2017-11-22T12:26:23.757Z,99.99
2017-11-22T12:27:33.726Z,99.99
2017-11-22T12:28:43.704Z,99.99
2017-11-22T12:29:53.422Z,99.99
2017-11-22T12:31:02.869Z,99.99
2017-11-22T12:32:12.330Z,99.99
2017-11-22T12:33:21.782Z,99.99
2017-11-22T12:34:31.766Z,99.99
2017-11-22T12:35:41.247Z,99.99
2017-11-22T12:36:50.972Z,99.99
2017-11-22T12:38:00.725Z,99.99
2017-11-22T12:39:10.449Z,99.99
2017-11-22T12:40:20.158Z,99.99
2017-11-22T12:41:30.157Z,99.99
2017-11-22T12:42:39.869Z,99.99
2017-11-22T12:43:49.591Z,99.99
2017-11-22T12:44:59.587Z,99.99
2017-11-22T12:46:09.625Z,99.99
2017-11-22T12:47:19.627Z,99.99
2017-11-22T12:48:29.387Z,99.99
2017-11-22T12:49:39.401Z,99.99
2017-11-22T12:50:49.129Z,99.99
2017-11-22T12:51:58.850Z,99.99
2017-11-22T12:53:09.096Z,99.99
2017-11-22T12:54:19.068Z,99.99
2017-11-22T12:55:28.771Z,99.99
2017-11-22T12:56:38.768Z,99.99
2017-11-22T12:57:48.759Z,99.99
2017-11-22T12:58:58.757Z,99.99
2017-11-22T13:00:08.488Z,99.99
2017-11-22T13:01:18.209Z,99.99
2017-11-22T13:02:27.661Z,99.99
2017-11-22T13:03:37.381Z,99.99
2017-11-22T13:04:47.358Z,99.99
2017-11-22T13:05:57.364Z,99.99
2017-11-22T13:07:07.072Z,99.99
2017-11-22T13:08:16.526Z,99.99
2017-11-22T13:09:26.233Z,99.99
2017-11-22T13:10:35.433Z,99.99
2017-11-22T13:11:45.436Z,99.99
2017-11-22T13:12:55.149Z,99.99
2017-11-22T13:14:04.861Z,99.99
2017-11-22T13:15:14.321Z,99.99
2017-11-22T13:16:24.053Z,99.99
2017-11-22T13:17:34.047Z,99.99
2017-11-22T13:18:44.043Z,99.99
2017-11-22T13:19:53.227Z,99.99
2017-11-22T13:21:02.943Z,99.99
2017-11-22T13:22:12.920Z,99.99
2017-11-22T13:23:22.642Z,99.99
2017-11-22T13:24:32.630Z,99.99
2017-11-22T13:25:42.341Z,99.99
2017-11-22T13:26:52.338Z,99.99
2017-11-22T13:28:02.336Z,99.99
2017-11-22T13:29:12.073Z,99.99
2017-11-22T13:30:21.539Z,99.99
2017-11-22T13:31:31.598Z,99.99
2017-11-22T13:32:41.578Z,99.99
2017-11-22T13:33:51.331Z,99.99
2017-11-22T13:35:01.335Z,99.99
2017-11-22T13:36:11.373Z,99.99
2017-11-22T13:37:21.347Z,99.99
2017-11-22T13:38:31.348Z,99.99
2017-11-22T13:39:41.357Z,99.99
2017-11-22T13:40:50.884Z,99.99
2017-11-22T13:42:00.643Z,99.99
2017-11-22T13:43:10.352Z,99.99
2017-11-22T13:44:20.363Z,99.99
2017-11-22T13:45:30.362Z,99.99
2017-11-22T13:46:40.351Z,99.99
2017-11-22T13:47:50.578Z,99.99
2017-11-22T13:49:00.561Z,99.99
2017-11-22T13:50:10.289Z,99.99
2017-11-22T13:51:20.333Z,99.99
2017-11-22T13:52:29.799Z,99.99
2017-11-22T13:53:38.999Z,99.99
2017-11-22T13:54:48.717Z,99.99
2017-11-22T13:55:58.473Z,99.99
2017-11-22T13:57:08.473Z,99.99
2017-11-22T13:58:18.238Z,99.99
2017-11-22T13:59:27.982Z,99.99
2017-11-22T14:00:37.692Z,99.99
2017-11-22T14:01:46.882Z,99.99
2017-11-22T14:02:56.632Z,99.99
2017-11-22T14:04:06.382Z,99.99
2017-11-22T14:05:16.082Z,99.99
2017-11-22T14:06:25.832Z,99.99
2017-11-22T14:07:35.814Z,99.99
2017-11-22T14:08:46.031Z,99.99
2017-11-22T14:09:55.774Z,99.99
2017-11-22T14:11:05.646Z,99.99
2017-11-22T14:12:16.110Z,99.99
2017-11-22T14:13:26.444Z,99.99
2017-11-22T14:14:36.156Z,99.99
2017-11-22T14:15:45.876Z,99.99
2017-11-22T14:16:55.334Z,99.99
2017-11-22T14:18:05.314Z,99.99
2017-11-22T14:19:15.298Z,99.99
2017-11-22T14:20:25.017Z,99.99
2017-11-22T14:21:35.014Z,99.99
2017-11-22T14:22:44.750Z,99.99
2017-11-22T14:23:54.740Z,99.99
2017-11-22T14:25:04.458Z,99.99
2017-11-22T14:26:13.917Z,99.99
2017-11-22T14:27:23.893Z,99.99
2017-11-22T14:28:33.353Z,99.99
2017-11-22T14:29:43.344Z,99.99
2017-11-22T14:30:52.795Z,99.99
2017-11-22T14:32:02.533Z,99.99
2017-11-22T14:33:12.003Z,99.99
2017-11-22T14:34:21.722Z,99.99
2017-11-22T14:35:31.721Z,99.99
2017-11-22T14:36:41.696Z,99.99
2017-11-22T14:37:51.704Z,99.99
2017-11-22T14:39:01.428Z,99.99
2017-11-22T14:40:10.667Z,99.99
2017-11-22T14:41:20.669Z,99.99
2017-11-22T14:42:30.678Z,99.99
2017-11-22T14:43:40.643Z,99.99
2017-11-22T14:44:50.354Z,99.99
2017-11-22T14:46:00.346Z,99.99
2017-11-22T14:47:10.045Z,99.99
2017-11-22T14:48:19.512Z,99.99
2017-11-22T14:49:29.242Z,99.99
2017-11-22T14:50:39.237Z,99.99
2017-11-22T14:51:48.976Z,99.99
2017-11-22T14:52:58.712Z,99.99
2017-11-22T14:54:08.697Z,99.99
2017-11-22T14:55:17.888Z,99.99
2017-11-22T14:56:27.878Z,99.99
2017-11-22T14:57:37.595Z,99.99
2017-11-22T14:58:47.334Z,99.99
2017-11-22T14:59:57.045Z,99.99
2017-11-22T15:01:06.746Z,99.99